Alpine Haven, Vermont
Current Conditions -  °F | °C
As of 3:15 AM on Thursday 18 Dec 2014 (Local Time) from KEFK Reporting Station
Light Snow Light Snow  
Wind Chill:   Ceiling: 1400
Heat Index:   Visibility: 3mi
Dew Point: -1°   Wind: 0mph
Humidity: 94%   Direction: NA
Pressure: 29.71"   Gusts: NA
Location:  44.8557°N, 72.6016°W
Report Text: KEFK 180815Z AUTO 00000KT 3SM -SN SCT008 BKN014 OVC036 00/M01 A2971 RMK AO2 T10011010
Loading
Personal Weather Stations






























Interactive Weather Map New forecast layout! Learn more

10-Day Weather Forecast

Advertisements
Track Severe Weather on mobile